createdAt,value
2022-12-08T00:01:02.174Z,6.3
2022-12-08T00:06:00.370Z,6.1
2022-12-08T00:10:58.461Z,6.1
2022-12-08T00:15:56.757Z,6
2022-12-08T00:20:54.874Z,5.9
2022-12-08T00:25:53.163Z,5.9
2022-12-08T00:30:51.392Z,5.7
2022-12-08T00:35:49.544Z,5.4
2022-12-08T00:40:47.171Z,4.5
2022-12-08T00:45:45.001Z,4
2022-12-08T00:50:42.820Z,3.5
2022-12-08T00:55:40.580Z,3.3
2022-12-08T01:00:38.421Z,3
2022-12-08T01:05:36.234Z,2.8
2022-12-08T01:10:34.169Z,2.6
2022-12-08T01:15:32.150Z,2.7
2022-12-08T01:20:30.200Z,2.8
2022-12-08T01:25:28.236Z,3.1
2022-12-08T01:30:26.968Z,3.4
2022-12-08T01:35:25.231Z,3.5
2022-12-08T01:40:23.763Z,3.8
2022-12-08T01:45:22.393Z,4.3
2022-12-08T01:50:20.646Z,4.5
2022-12-08T01:55:19.025Z,4.7
2022-12-08T02:00:17.490Z,5.2
2022-12-08T02:05:16.283Z,5.8
2022-12-08T02:10:14.719Z,6.1
2022-12-08T02:15:13.181Z,6.3
2022-12-08T02:20:11.092Z,5.6
2022-12-08T02:25:09.165Z,5
2022-12-08T02:30:07.124Z,4.6
2022-12-08T02:35:05.005Z,4.3
2022-12-08T02:40:03.710Z,4.2
2022-12-08T02:45:01.444Z,4.1
2022-12-08T02:49:59.701Z,4.1
2022-12-08T02:54:57.903Z,4.2
2022-12-08T02:59:56.166Z,4.3
2022-12-08T03:04:54.333Z,4.4
2022-12-08T03:09:52.518Z,4.6
2022-12-08T03:14:50.693Z,4.7
2022-12-08T03:19:49.074Z,4.8
2022-12-08T03:24:47.854Z,5.1
2022-12-08T03:29:46.123Z,4.9
2022-12-08T03:34:44.320Z,4.8
2022-12-08T03:39:42.446Z,4.9
2022-12-08T03:44:40.684Z,4.9
2022-12-08T03:49:38.626Z,5
2022-12-08T03:54:36.847Z,5.2
2022-12-08T03:59:35.080Z,5.1
2022-12-08T04:04:33.045Z,4.8
2022-12-08T04:09:31.227Z,4.6
2022-12-08T04:14:29.419Z,4.6
2022-12-08T04:19:27.641Z,4.6
2022-12-08T04:24:25.968Z,4.6
2022-12-08T04:29:24.198Z,4.4
2022-12-08T04:34:22.314Z,4.6
2022-12-08T04:39:20.699Z,4.7
2022-12-08T04:44:18.826Z,4.7
2022-12-08T04:49:16.946Z,4.6
2022-12-08T04:54:15.184Z,4.6
2022-12-08T04:59:13.314Z,4.5
2022-12-08T05:04:11.623Z,4.3
2022-12-08T05:09:09.777Z,4.5
2022-12-08T05:14:07.441Z,4.5
2022-12-08T05:19:05.714Z,4.4
2022-12-08T05:24:04.048Z,4.5
2022-12-08T05:29:02.637Z,4.3
2022-12-08T05:34:02.894Z,4.2
2022-12-08T05:38:59.283Z,3.9
2022-12-08T05:43:57.540Z,3.9
2022-12-08T05:48:55.773Z,3.9
2022-12-08T05:53:54.093Z,4
2022-12-08T05:58:52.388Z,3.9
2022-12-08T06:03:50.633Z,3.9
2022-12-08T06:08:48.811Z,4.2
2022-12-08T06:13:47.216Z,4.6
2022-12-08T06:18:45.779Z,4.9
2022-12-08T06:23:44.639Z,5.5
2022-12-08T06:28:43.281Z,6
2022-12-08T06:33:42.079Z,6.4
2022-12-08T06:38:43.487Z,6.6
2022-12-08T06:43:39.105Z,6.5
2022-12-08T06:48:37.455Z,6.5
2022-12-08T06:53:36.552Z,6.7
2022-12-08T06:58:34.777Z,6.7
2022-12-08T07:03:33.430Z,7.6
2022-12-08T07:08:33.869Z,10.5
2022-12-08T07:13:35.088Z,12.4
2022-12-08T07:18:35.504Z,14.3
2022-12-08T07:23:32.876Z,12.8
2022-12-08T07:28:30.028Z,12.4
2022-12-08T07:33:26.775Z,11.3
2022-12-08T07:38:25.085Z,11.4
2022-12-08T07:43:24.518Z,12.5
2022-12-08T07:48:24.396Z,13.6
2022-12-08T07:53:24.515Z,15.8
2022-12-08T07:58:26.437Z,19.9
2022-12-08T08:03:26.987Z,19.5
2022-12-08T08:08:20.542Z,15.8
2022-12-08T08:13:16.535Z,14.6
2022-12-08T08:18:13.660Z,13.5
2022-12-08T08:23:11.042Z,13
2022-12-08T08:28:08.975Z,12.9
2022-12-08T08:33:07.234Z,13.1
2022-12-08T08:38:05.489Z,12.8
2022-12-08T08:43:03.305Z,12.4
2022-12-08T08:48:00.581Z,12.5
2022-12-08T08:52:58.836Z,12.5
2022-12-08T08:57:58.156Z,13.5
2022-12-08T09:02:58.507Z,15.4
2022-12-08T09:07:57.430Z,15.7
2022-12-08T09:12:54.725Z,15.4
2022-12-08T09:17:53.024Z,15.2
2022-12-08T09:22:52.401Z,16.5
2022-12-08T09:27:56.533Z,22.3
2022-12-08T09:33:00.124Z,26.7
2022-12-08T09:38:01.066Z,29.5
2022-12-08T09:43:00.647Z,30.9
2022-12-08T09:47:58.060Z,32
2022-12-08T09:52:56.804Z,32
2022-12-08T09:57:56.804Z,32.9
2022-12-08T10:02:56.112Z,34.6
2022-12-08T10:07:52.345Z,31.7
2022-12-08T10:12:51.053Z,32.4
2022-12-08T10:17:47.695Z,31.3
2022-12-08T10:22:45.493Z,30.6
2022-12-08T10:27:43.052Z,30.3
2022-12-08T10:32:39.092Z,27.6
2022-12-08T10:37:38.156Z,28.9
2022-12-08T10:42:35.580Z,28
2022-12-08T10:47:31.088Z,25.4
2022-12-08T10:52:26.140Z,22.2
2022-12-08T10:57:23.228Z,21.1
2022-12-08T11:02:20.320Z,20.2
2022-12-08T11:07:17.478Z,19.7
2022-12-08T11:12:15.267Z,19.5
2022-12-08T11:17:13.681Z,19.4
2022-12-08T11:22:11.687Z,19.3
2022-12-08T11:27:09.420Z,19
2022-12-08T11:32:07.402Z,18.6
2022-12-08T11:37:05.339Z,18.7
2022-12-08T11:42:04.049Z,19.2
2022-12-08T11:47:02.659Z,18.5
2022-12-08T11:52:00.084Z,17.9
2022-12-08T11:56:57.772Z,17.5
2022-12-08T12:01:56.148Z,17.9
2022-12-08T12:06:55.750Z,19.4
2022-12-08T12:11:53.723Z,19
2022-12-08T12:16:51.076Z,17.9
2022-12-08T12:21:48.474Z,16.9
2022-12-08T12:26:45.848Z,16.3
2022-12-08T12:31:43.492Z,16
2022-12-08T12:36:41.455Z,15.9
2022-12-08T12:41:39.796Z,16.1
2022-12-08T12:46:38.088Z,15.8
2022-12-08T12:51:35.974Z,15.9
2022-12-08T12:56:33.993Z,15.7
2022-12-08T13:01:32.166Z,15.6
2022-12-08T13:06:30.620Z,15.7
2022-12-08T13:11:29.003Z,15.6
2022-12-08T13:16:26.706Z,15.1
2022-12-08T13:21:24.607Z,15.4
2022-12-08T13:26:22.806Z,14.8
2022-12-08T13:31:20.913Z,14.3
2022-12-08T13:36:18.828Z,14.3
2022-12-08T13:41:16.581Z,13.9
2022-12-08T14:01:08.241Z,13
2022-12-08T14:06:13.732Z,12.7
2022-12-08T14:11:04.240Z,12.5
2022-12-08T14:16:02.244Z,12.2
2022-12-08T14:21:20.229Z,12
2022-12-08T14:25:58.478Z,11.9
2022-12-08T14:30:56.620Z,11.6
2022-12-08T14:35:54.761Z,11.6
2022-12-08T14:40:53.230Z,11.4
2022-12-08T14:45:52.128Z,11.3
2022-12-08T14:50:50.098Z,11.1
2022-12-08T14:55:48.041Z,10.8
2022-12-08T15:00:46.096Z,10.6
2022-12-08T15:05:44.090Z,10.5
2022-12-08T15:10:42.154Z,10.4
2022-12-08T15:15:40.129Z,10.4
2022-12-08T15:20:38.732Z,10.3
2022-12-08T15:25:36.955Z,10.2
2022-12-08T15:30:35.124Z,10.1
2022-12-08T15:35:37.310Z,9.9
2022-12-08T15:40:31.441Z,9.9
2022-12-08T15:45:29.522Z,9.9
2022-12-08T15:50:27.590Z,9.9
2022-12-08T15:55:25.708Z,10
2022-12-08T16:00:50.945Z,10.1
2022-12-08T16:10:20.956Z,10.1
2022-12-08T16:20:17.136Z,10.2
2022-12-08T16:25:19.717Z,10.3
2022-12-08T16:30:13.674Z,10.2
2022-12-08T16:35:11.841Z,10.2
2022-12-08T16:40:10.028Z,10.3
2022-12-08T16:45:08.478Z,10.2
2022-12-08T16:50:06.296Z,10.2
2022-12-08T16:55:04.579Z,10
2022-12-08T17:00:02.445Z,9.8
2022-12-08T17:05:00.569Z,9.7
2022-12-08T17:09:58.853Z,9.5
2022-12-08T17:14:57.017Z,9.6
2022-12-08T17:19:55.131Z,9.5
2022-12-08T17:24:53.454Z,9.6
2022-12-08T17:29:51.562Z,9.6
2022-12-08T17:34:49.854Z,9.6
2022-12-08T17:39:47.897Z,9.6
2022-12-08T17:44:46.157Z,9.6
2022-12-08T17:49:44.631Z,9.6
2022-12-08T17:54:42.949Z,9.7
2022-12-08T17:59:41.403Z,9.7
2022-12-08T18:04:39.408Z,9.8
2022-12-08T18:09:37.809Z,9.9
2022-12-08T18:14:35.909Z,9.8
2022-12-08T18:19:34.043Z,9.9
2022-12-08T18:24:32.330Z,9.8
2022-12-08T18:29:30.825Z,9.9
2022-12-08T18:34:29.398Z,9.9
2022-12-08T18:39:27.730Z,9.9
2022-12-08T18:44:25.689Z,9.9
2022-12-08T18:49:24.491Z,9.9
2022-12-08T18:54:36.994Z,9.9
2022-12-08T18:59:20.481Z,9.8
2022-12-08T19:04:37.292Z,9.9
2022-12-08T19:09:17.199Z,9.8
2022-12-08T19:14:15.394Z,9.9
2022-12-08T19:19:13.863Z,9.8
2022-12-08T19:24:12.304Z,9.9
2022-12-08T19:29:11.281Z,9.8
2022-12-08T19:34:09.337Z,9.8
2022-12-08T19:39:07.830Z,9.9
2022-12-08T19:44:06.166Z,9.9
2022-12-08T19:49:04.404Z,9.9
2022-12-08T19:54:02.847Z,9.9
2022-12-08T19:59:01.789Z,9.8
2022-12-08T20:03:59.898Z,9.8
2022-12-08T20:08:57.899Z,9.8
2022-12-08T20:13:56.407Z,9.9
2022-12-08T20:18:54.779Z,9.9
2022-12-08T20:23:52.946Z,9.8
2022-12-08T20:28:51.089Z,9.8
2022-12-08T20:33:49.539Z,9.8
2022-12-08T20:38:47.873Z,9.8
2022-12-08T20:43:46.095Z,9.9
2022-12-08T20:48:44.315Z,9.9
2022-12-08T20:53:42.772Z,10
2022-12-08T20:58:40.976Z,10
2022-12-08T21:03:39.005Z,9.9
2022-12-08T21:08:37.139Z,10
2022-12-08T21:13:36.010Z,10
2022-12-08T21:18:39.092Z,9.9
2022-12-08T21:23:32.307Z,9.8
2022-12-08T21:28:30.679Z,9.7
2022-12-08T21:33:28.958Z,9.9
2022-12-08T21:38:27.425Z,9.8
2022-12-08T21:43:25.809Z,9.8
2022-12-08T21:48:24.435Z,9.9
2022-12-08T21:53:22.507Z,9.9
2022-12-08T21:58:20.393Z,9.9
2022-12-08T22:03:18.569Z,9.9
2022-12-08T22:08:16.868Z,9.9
2022-12-08T22:13:14.894Z,9.8
2022-12-08T22:18:13.378Z,9.8
2022-12-08T22:23:11.449Z,9.9
2022-12-08T22:28:09.589Z,9.8
2022-12-08T22:33:07.777Z,10
2022-12-08T22:38:05.988Z,10
2022-12-08T22:43:04.329Z,10
2022-12-08T22:48:02.434Z,10
2022-12-08T22:53:00.938Z,10
2022-12-08T22:57:59.029Z,10
2022-12-08T23:02:57.621Z,9.9
2022-12-08T23:07:55.551Z,9.9
2022-12-08T23:12:53.735Z,9.8
2022-12-08T23:17:51.916Z,9.8
2022-12-08T23:22:50.193Z,9.7
2022-12-08T23:27:48.454Z,9.7
2022-12-08T23:32:46.783Z,9.7
2022-12-08T23:37:45.002Z,9.7
2022-12-08T23:42:43.364Z,9.7
2022-12-08T23:47:41.746Z,9.7
2022-12-08T23:52:40.247Z,9.7
2022-12-08T23:57:38.567Z,9.7
